Jay, Maine
Current Conditions -  °F | °C
As of 10:53 PM on Saturday 24 Jan 2015 (Local Time) from KAUG Reporting Station
Broken Clouds Broken Clouds  
Wind Chill: 19°   Ceiling: 7000
Heat Index: 27°   Visibility: 10mi
Dew Point: 19°   Wind: 7mph
Humidity: 72%   Direction: 290°WNW
Pressure: 29.12"   Gusts: NA
Location:  44.51°N, 70.22°W
Report Text: KAUG 250353Z AUTO 29006KT 10SM BKN070 M03/M07 A2912 RMK AO2 SLP866 T10281072
Loading
Personal Weather Stations






























Interactive Weather Map New forecast layout! Learn more

10-Day Weather Forecast

Advertisements
Track Severe Weather on mobile